Aérodrome :
LOGIN :

S'inscrire | Disclaimer

   EN    FR    IT 

 










Légende :    VFR   VFR Marginal   IFR   IFR Intensif   IFR Très Intensif
Visi : 
Plafond : 
>= 8 km
>= 3000ft
5 à 8 km
1000 à 3000 ft
1500m à 5 km
500 à 1000 ft
800 à 1500m
200 à 500 ft
< 800m
< 200 ft
Symboles :   Orages  Brouillard  Fortes neiges  Fortes précipitations  Vent > 20 kt
SIGMETs :   Divers  Orages  Givrage  Turbulence  Onde Orograph.  Cendres Volcan.







- Altitude de l'aérodrome : 235 ft
- Code IATA : BZG


EPBY - Bydgoszcz

DERNIER METAR :
  • 142230Z 23006KT CAVOK 16/13 Q1011

METARs EXPIRÉS :
  • 142200Z 23005KT CAVOK 16/13 Q1011
  • 142130Z 24005KT CAVOK 16/13 Q1011
  • 142100Z 24006KT CAVOK 17/13 Q1011
  • 142030Z 24007KT CAVOK 18/13 Q1011
  • 142000Z 23006KT CAVOK 19/13 Q1010

TAF TAF EPBY
Valide du 14 à 18h jusqu'au 15 à 18h UTC


141730Z 1418/1518 26008KT CAVOK
PROB40 1503/1506 BKN010
TEMPO 1509/1518 -SHRA BKN030CB
Pas de NOTAMs connus pour ce terrain.



MET'MAP, la Météo Aéronautique d'un coup d'oeil ! - Copyright ORBIFLY Décembre 2007 - Disclaimer

ORBIFLY MET'MAP TEAM :

Programmation & Développement : Alexandra Zaïnal
Conception & Développement : Baudouin d'Aumeries
Co-Programmation & Développement : Marc-Olivier Méhu
Soutien technique & logistique : Manuel Goepfert

Contact : metmap@orbifly.com




SOURCES & CREDITS :

   NOAA